Time;durP1;ratioP1;P1;durP2;ratioP2;P2;SDS_P1;SDS_P2;PMS_P1;PMS_P2;Temp;Humidity;BMP_temperature;BMP_pressure;BME280_temperature;BME280_humidity;BME280_pressure;Samples;Min_cycle;Max_cycle;Signal;HPM_P1;HPM_P2
2022/01/18 00:00:11;;;;;;;;;;;;;;;-1.73;100.00;97765.22;1702956;83;20109;-66
2022/01/18 00:02:42;;;;;;;;;;;;;;;-1.74;100.00;97772.52;1713536;83;20089;-67
2022/01/18 00:05:14;;;;;;;;;;;;;;;-1.75;100.00;97768.77;1689723;84;20146;-67
2022/01/18 00:07:47;;;;;;;;;;;;;;;-1.74;100.00;97783.82;1713625;83;21713;-66
2022/01/18 00:10:22;;;;;;;;;;;;;;;-1.76;100.00;97788.67;1713193;83;20090;-67
2022/01/18 00:18:13;;;;;;;;;;;;;;;-1.77;100.00;97808.59;1690569;84;20090;-67
2022/01/18 00:23:45;;;;;;;;;;;;;;;-1.75;100.00;97805.08;1676830;84;20154;-67
2022/01/18 00:26:14;;;;;;;;;;;;;;;-1.72;100.00;97811.22;1693595;84;20220;-67
2022/01/18 00:28:50;;;;;;;;;;;;;;;-1.73;100.00;97820.38;1694917;84;20444;-67
2022/01/18 00:36:57;;;;;;;;;;;;;;;-1.84;100.00;97855.16;1693165;84;21621;-67
2022/01/18 00:39:22;;;;;;;;;;;;;;;-1.92;100.00;97855.19;1698617;83;20115;-67
2022/01/18 00:41:55;;;;;;;;;;;;;;;-1.94;100.00;97841.22;1699854;83;20083;-67
2022/01/18 00:44:23;;;;;;;;;;;;;;;-1.97;100.00;97852.53;1726600;83;20122;-68
2022/01/18 00:46:57;;;;;;;;;;;;;;;-2.00;100.00;97881.31;1726309;83;21247;-67
2022/01/18 00:49:26;;;;;;;;;;;;;;;-1.99;100.00;97886.95;1710031;84;20122;-67
2022/01/18 00:51:57;;;;;;;;;;;;;;;-1.97;100.00;97905.50;1726858;83;20414;-68
2022/01/18 00:54:36;;;;;;;;;;;;;;;-2.02;100.00;97914.39;1685231;84;20522;-68
2022/01/18 00:57:02;;;;;;;;;;;;;;;-2.02;100.00;97913.86;1725884;83;20883;-67
2022/01/18 00:59:34;;;;;;;;;;;;;;;-2.04;100.00;97925.42;1704335;84;21830;-66
2022/01/18 01:02:05;;;;;;;;;;;;;;;-2.07;100.00;97931.88;1699583;83;20094;-67
2022/01/18 01:04:45;;;;;;;;;;;;;;;-2.14;96.61;97944.80;1710459;84;20121;-66
2022/01/18 01:07:08;;;;;;;;;;;;;;;-2.19;95.46;97955.57;1725273;83;20142;-67
2022/01/18 01:09:39;;;;;;;;;;;;;;;-2.27;91.61;97967.67;1709681;84;20109;-66
2022/01/18 01:12:14;;;;;;;;;;;;;;;-2.33;88.15;97974.16;1700101;83;20087;-66
2022/01/18 01:14:52;;;;;;;;;;;;;;;-2.38;86.46;97958.05;1686001;84;20089;-67
2022/01/18 01:42:00;;;;;;;;;;;;;;;-2.75;90.04;98065.75;1697351;84;20112;-67
2022/01/18 01:46:44;;;;;;;;;;;;;;;-2.81;88.17;98076.21;1712311;84;20083;-68
2022/01/18 01:49:22;;;;;;;;;;;;;;;-2.86;87.18;98061.42;1712830;84;20148;-68
2022/01/18 01:51:48;;;;;;;;;;;;;;;-2.93;89.99;98071.64;1676030;84;20139;-66
2022/01/18 01:54:21;;;;;;;;;;;;;;;-3.03;90.26;98081.81;1675069;84;20084;-67
2022/01/18 01:56:57;;;;;;;;;;;;;;;-3.11;88.84;98093.86;1674329;84;20100;-67
2022/01/18 01:59:21;;;;;;;;;;;;;;;-3.22;87.32;98089.52;1712641;84;20080;-67
2022/01/18 02:01:53;;;;;;;;;;;;;;;-3.28;90.94;98106.66;1712287;84;20210;-67
2022/01/18 02:04:19;;;;;;;;;;;;;;;-3.38;89.25;98112.78;1712322;84;21166;-67
2022/01/18 02:06:49;;;;;;;;;;;;;;;-3.43;90.20;98116.78;1685300;84;20079;-67
2022/01/18 02:09:18;;;;;;;;;;;;;;;-3.48;89.86;98120.00;1697082;84;20133;-67
2022/01/18 02:11:55;;;;;;;;;;;;;;;-3.53;91.96;98124.80;1713532;84;20416;-66
2022/01/18 02:14:19;;;;;;;;;;;;;;;-3.57;94.13;98136.30;1695726;84;20136;-66
2022/01/18 02:22:31;;;;;;;;;;;;;;;-3.66;96.16;98154.75;1714203;83;20185;-67
2022/01/18 02:24:53;;;;;;;;;;;;;;;-3.68;98.90;98171.64;1716964;83;20504;-66
2022/01/18 02:27:26;;;;;;;;;;;;;;;-3.78;99.79;98158.15;1684730;84;20120;-67
2022/01/18 02:29:54;;;;;;;;;;;;;;;-3.86;100.00;98174.17;1686610;84;20454;-66
2022/01/18 02:32:31;;;;;;;;;;;;;;;-3.93;100.00;98187.52;1710535;84;20124;-66
2022/01/18 02:34:59;;;;;;;;;;;;;;;-3.98;100.00;98173.53;1713075;84;20139;-66
2022/01/18 02:37:30;;;;;;;;;;;;;;;-4.02;100.00;98196.02;1712514;84;20124;-65
2022/01/18 02:40:02;;;;;;;;;;;;;;;-4.01;100.00;98214.25;1712665;84;20112;-65
2022/01/18 02:42:40;;;;;;;;;;;;;;;-4.02;100.00;98218.00;1711701;84;21108;-65
2022/01/18 02:45:19;;;;;;;;;;;;;;;-4.05;100.00;98218.53;1685674;84;20115;-66
2022/01/18 02:47:34;;;;;;;;;;;;;;;-4.10;100.00;98230.02;1706664;84;20088;-66
2022/01/18 02:50:03;;;;;;;;;;;;;;;-4.11;100.00;98239.11;1684269;84;20458;-65
2022/01/18 02:52:29;;;;;;;;;;;;;;;-4.13;98.92;98241.77;1712915;84;20111;-66
2022/01/18 02:55:01;;;;;;;;;;;;;;;-4.13;100.00;98237.75;1712864;83;21792;-65
2022/01/18 02:57:28;;;;;;;;;;;;;;;-4.12;100.00;98258.94;1710482;83;20115;-66
2022/01/18 03:00:18;;;;;;;;;;;;;;;-4.11;100.00;98263.23;1683795;84;20083;-66
2022/01/18 03:05:25;;;;;;;;;;;;;;;-4.06;100.00;98269.18;1710761;84;20108;-67
2022/01/18 03:07:59;;;;;;;;;;;;;;;-4.02;100.00;98234.89;1712901;84;21090;-67
2022/01/18 03:10:23;;;;;;;;;;;;;;;-4.00;100.00;98281.02;1709954;84;20426;-67
2022/01/18 03:12:49;;;;;;;;;;;;;;;-3.96;100.00;98280.52;1710567;84;20134;-67
2022/01/18 03:15:17;;;;;;;;;;;;;;;-3.94;97.75;98294.48;1710613;84;20123;-66
2022/01/18 03:17:44;;;;;;;;;;;;;;;-3.96;95.80;98288.55;1704039;84;20115;-67
2022/01/18 03:20:13;;;;;;;;;;;;;;;-3.99;99.28;98308.10;1704474;84;23251;-67
2022/01/18 03:22:40;;;;;;;;;;;;;;;-4.03;100.00;98328.43;1702073;84;20081;-67
2022/01/18 03:28:05;;;;;;;;;;;;;;;-4.17;100.00;98331.77;1682507;83;20458;-67
2022/01/18 03:30:41;;;;;;;;;;;;;;;-4.26;100.00;98313.98;1670759;86;20086;-67
2022/01/18 03:33:17;;;;;;;;;;;;;;;-4.33;100.00;98322.73;1670750;84;21156;-67
2022/01/18 03:35:44;;;;;;;;;;;;;;;-4.37;100.00;98326.97;1700110;84;20196;-66
2022/01/18 03:38:11;;;;;;;;;;;;;;;-4.41;100.00;98336.03;1700246;84;20113;-67
2022/01/18 03:40:37;;;;;;;;;;;;;;;-4.41;99.68;98325.31;1700233;83;20164;-67
2022/01/18 03:43:06;;;;;;;;;;;;;;;-4.38;98.06;98344.10;1700169;84;20460;-66
2022/01/18 03:45:39;;;;;;;;;;;;;;;-4.39;94.35;98346.50;1700241;84;21112;-67
2022/01/18 03:48:05;;;;;;;;;;;;;;;-4.39;88.51;98363.38;1699886;84;20125;-67
2022/01/18 03:50:30;;;;;;;;;;;;;;;-4.36;87.63;98354.05;1700280;84;20185;-67
2022/01/18 03:52:57;;;;;;;;;;;;;;;-4.36;89.52;98368.78;1700194;84;20160;-67
2022/01/18 03:55:23;;;;;;;;;;;;;;;-4.37;87.14;98361.80;1700272;84;20137;-67
2022/01/18 03:57:49;;;;;;;;;;;;;;;-4.37;84.77;98365.81;1700422;84;21750;-67
2022/01/18 04:00:21;;;;;;;;;;;;;;;-4.38;85.41;98375.72;1700212;83;20173;-67
2022/01/18 04:02:47;;;;;;;;;;;;;;;-4.39;85.65;98390.70;1700507;83;20189;-67
2022/01/18 04:05:13;;;;;;;;;;;;;;;-4.38;82.11;98390.98;1700210;83;20137;-67
2022/01/18 04:07:41;;;;;;;;;;;;;;;-4.39;80.36;98394.72;1700296;83;20105;-68
2022/01/18 04:10:08;;;;;;;;;;;;;;;-4.43;80.91;98398.42;1700240;83;21142;-68
2022/01/18 04:12:35;;;;;;;;;;;;;;;-4.44;80.62;98406.70;1700312;84;20438;-67
2022/01/18 04:15:06;;;;;;;;;;;;;;;-4.47;81.85;98412.56;1700137;84;20185;-67
2022/01/18 04:25:54;;;;;;;;;;;;;;;-4.57;83.28;98432.49;1712481;84;20128;-67
2022/01/18 04:31:01;;;;;;;;;;;;;;;-4.62;86.80;98454.66;1712758;84;21948;-67
2022/01/18 04:33:28;;;;;;;;;;;;;;;-4.68;84.12;98465.84;1712717;84;20531;-66
2022/01/18 04:35:55;;;;;;;;;;;;;;;-4.70;86.76;98485.88;1712718;83;21138;-67
2022/01/18 04:38:21;;;;;;;;;;;;;;;-4.69;86.84;98486.17;1712685;84;20126;-68
2022/01/18 04:40:48;;;;;;;;;;;;;;;-4.69;85.46;98491.52;1712749;83;20120;-68
2022/01/18 04:43:38;;;;;;;;;;;;;;;-4.70;86.08;98476.52;1712765;83;20137;-67
2022/01/18 04:48:37;;;;;;;;;;;;;;;-4.68;88.84;98506.01;1712751;84;21136;-68
2022/01/18 04:51:08;;;;;;;;;;;;;;;-4.66;87.09;98503.91;1712669;84;20141;-68
2022/01/18 04:53:44;;;;;;;;;;;;;;;-4.66;86.93;98515.95;1712950;84;20197;-67
2022/01/18 04:56:15;;;;;;;;;;;;;;;-4.63;89.38;98524.56;1712844;83;20112;-67
2022/01/18 04:58:38;;;;;;;;;;;;;;;-4.63;90.55;98517.86;1712261;84;20112;-67
2022/01/18 05:01:07;;;;;;;;;;;;;;;-4.66;90.57;98523.98;1712634;84;21071;-67
2022/01/18 05:03:34;;;;;;;;;;;;;;;-4.69;90.07;98525.00;1712909;84;20149;-67
2022/01/18 05:06:08;;;;;;;;;;;;;;;-4.72;90.39;98537.00;1730046;82;20126;-67
2022/01/18 05:08:32;;;;;;;;;;;;;;;-4.76;89.62;98541.22;1712371;84;20112;-67
2022/01/18 05:10:59;;;;;;;;;;;;;;;-4.79;91.62;98545.71;1712693;84;20121;-67
2022/01/18 05:21:29;;;;;;;;;;;;;;;-4.84;91.70;98563.02;1722910;82;20469;-66
2022/01/18 05:23:54;;;;;;;;;;;;;;;-4.85;88.75;98570.77;1714471;82;20145;-66
2022/01/18 05:26:21;;;;;;;;;;;;;;;-4.81;90.65;98557.19;1712657;84;21050;-67
2022/01/18 05:28:48;;;;;;;;;;;;;;;-4.80;89.41;98571.39;1712984;84;20140;-66
2022/01/18 05:31:14;;;;;;;;;;;;;;;-4.81;88.82;98568.42;1712792;84;20480;-66
2022/01/18 05:33:42;;;;;;;;;;;;;;;-4.80;87.54;98571.39;1712819;84;20575;-72
2022/01/18 05:36:09;;;;;;;;;;;;;;;-4.80;86.98;98573.54;1712651;84;20128;-67
2022/01/18 05:38:36;;;;;;;;;;;;;;;-4.78;85.08;98575.45;1712828;83;21088;-69
2022/01/18 05:41:04;;;;;;;;;;;;;;;-4.76;84.14;98587.27;1712641;83;20148;-68
2022/01/18 05:43:31;;;;;;;;;;;;;;;-4.72;85.38;98597.25;1712615;84;20152;-68
2022/01/18 05:45:57;;;;;;;;;;;;;;;-4.71;86.16;98603.42;1712758;84;20381;-67
2022/01/18 05:48:23;;;;;;;;;;;;;;;-4.66;88.12;98578.08;1712886;84;20476;-68
2022/01/18 05:50:50;;;;;;;;;;;;;;;-4.67;83.57;98599.21;1712698;84;21107;-67
2022/01/18 05:53:18;;;;;;;;;;;;;;;-4.67;85.51;98609.40;1712659;84;20137;-67
2022/01/18 05:55:44;;;;;;;;;;;;;;;-4.69;80.55;98608.83;1712615;84;20124;-67
2022/01/18 05:58:10;;;;;;;;;;;;;;;-4.69;81.76;98621.41;1712519;84;20149;-67
2022/01/18 06:00:39;;;;;;;;;;;;;;;-4.68;82.63;98627.86;1712630;83;20146;-67
2022/01/18 06:03:13;;;;;;;;;;;;;;;-4.69;82.53;98633.45;1712954;83;21110;-67
2022/01/18 06:08:17;;;;;;;;;;;;;;;-4.70;81.20;98638.00;1712937;84;20160;-67
2022/01/18 06:10:45;;;;;;;;;;;;;;;-4.69;83.80;98636.95;1712601;84;20137;-67
2022/01/18 06:13:13;;;;;;;;;;;;;;;-4.71;80.04;98644.41;1712631;83;20153;-67
2022/01/18 06:15:39;;;;;;;;;;;;;;;-4.72;83.58;98644.12;1712677;84;21053;-67
2022/01/18 06:18:07;;;;;;;;;;;;;;;-4.71;83.61;98657.80;1712568;83;20156;-67
2022/01/18 06:20:34;;;;;;;;;;;;;;;-4.71;80.23;98675.20;1712713;83;20129;-67
2022/01/18 06:23:00;;;;;;;;;;;;;;;-4.69;81.28;98682.47;1712843;84;20136;-67
2022/01/18 06:25:27;;;;;;;;;;;;;;;-4.64;81.00;98687.64;1712488;83;20320;-67
2022/01/18 06:27:53;;;;;;;;;;;;;;;-4.61;80.48;98691.97;1712804;83;21199;-67
2022/01/18 06:30:20;;;;;;;;;;;;;;;-4.59;80.83;98689.05;1712522;84;20125;-67
2022/01/18 06:32:47;;;;;;;;;;;;;;;-4.55;80.49;98699.05;1712583;83;20191;-67
2022/01/18 06:35:14;;;;;;;;;;;;;;;-4.52;82.28;98690.53;1712764;83;20129;-67
2022/01/18 06:37:40;;;;;;;;;;;;;;;-4.52;80.32;98705.27;1712691;84;20153;-68
2022/01/18 06:40:08;;;;;;;;;;;;;;;-4.51;82.71;98706.08;1712596;83;23333;-68
2022/01/18 06:42:35;;;;;;;;;;;;;;;-4.49;81.76;98712.83;1712679;83;20144;-67
2022/01/18 06:45:01;;;;;;;;;;;;;;;-4.48;79.79;98710.96;1712595;84;20451;-67
2022/01/18 06:47:28;;;;;;;;;;;;;;;-4.48;81.40;98711.77;1712665;83;20136;-67
2022/01/18 06:49:54;;;;;;;;;;;;;;;-4.48;79.29;98726.51;1712596;84;20128;-68
2022/01/18 06:52:20;;;;;;;;;;;;;;;-4.48;80.92;98723.83;1712824;84;21115;-67
2022/01/18 06:54:46;;;;;;;;;;;;;;;-4.48;81.51;98705.08;1712863;84;20137;-67
2022/01/18 06:57:13;;;;;;;;;;;;;;;-4.45;82.51;98694.41;1712762;83;20144;-67
2022/01/18 06:59:39;;;;;;;;;;;;;;;-4.43;79.37;98713.21;1712736;84;20593;-68
2022/01/18 07:02:05;;;;;;;;;;;;;;;-4.42;78.90;98735.46;1712664;84;20149;-67
2022/01/18 07:04:31;;;;;;;;;;;;;;;-4.42;80.31;98738.14;1713002;84;21143;-67
2022/01/18 07:06:58;;;;;;;;;;;;;;;-4.38;80.35;98745.98;1712578;84;20140;-67
2022/01/18 07:09:24;;;;;;;;;;;;;;;-4.35;79.29;98761.06;1712645;84;20128;-68
2022/01/18 07:11:55;;;;;;;;;;;;;;;-4.28;81.66;98768.96;1712683;84;38062;-66
2022/01/18 07:14:22;;;;;;;;;;;;;;;-4.24;78.13;98751.36;1712540;83;20158;-67
2022/01/18 07:16:49;;;;;;;;;;;;;;;-4.21;75.63;98761.59;1712907;83;21765;-66
2022/01/18 07:19:17;;;;;;;;;;;;;;;-4.20;74.25;98761.89;1712484;83;20494;-66
2022/01/18 07:21:43;;;;;;;;;;;;;;;-4.14;74.59;98762.80;1712677;84;20113;-66
2022/01/18 07:24:18;;;;;;;;;;;;;;;-4.09;72.85;98765.57;1712393;83;20105;-67
2022/01/18 07:26:46;;;;;;;;;;;;;;;-4.05;74.45;98773.42;1712643;84;20152;-68
2022/01/18 07:29:14;;;;;;;;;;;;;;;-3.97;71.15;98777.55;1712571;84;21073;-67
2022/01/18 07:31:41;;;;;;;;;;;;;;;-3.93;74.95;98766.64;1712598;84;20139;-66
2022/01/18 07:34:07;;;;;;;;;;;;;;;-3.91;74.05;98753.80;1712568;83;20187;-68
2022/01/18 07:36:34;;;;;;;;;;;;;;;-3.91;73.58;98755.95;1712651;84;20113;-67
2022/01/18 07:39:00;;;;;;;;;;;;;;;-3.86;75.44;98765.44;1712644;84;20128;-67
2022/01/18 07:41:26;;;;;;;;;;;;;;;-3.84;72.95;98782.63;1712779;84;21100;-67
2022/01/18 07:43:54;;;;;;;;;;;;;;;-3.83;68.32;98767.63;1712509;84;20113;-67
2022/01/18 07:46:21;;;;;;;;;;;;;;;-3.80;70.95;98773.05;1712653;83;20157;-68
2022/01/18 07:48:47;;;;;;;;;;;;;;;-3.77;68.95;98779.27;1712629;83;20164;-68
2022/01/18 07:51:13;;;;;;;;;;;;;;;-3.71;70.75;98782.33;1712837;84;20128;-68
2022/01/18 07:53:39;;;;;;;;;;;;;;;-3.56;70.91;98787.95;1712767;83;21176;-68
2022/01/18 07:56:06;;;;;;;;;;;;;;;-3.31;70.51;98778.14;1712465;83;20152;-68
2022/01/18 07:58:33;;;;;;;;;;;;;;;-3.13;71.08;98795.34;1712693;84;20104;-68
2022/01/18 08:01:00;;;;;;;;;;;;;;;-3.05;71.62;98795.45;1688250;84;21888;-67
2022/01/18 08:03:28;;;;;;;;;;;;;;;-3.00;69.96;98788.82;1712746;84;20112;-67
2022/01/18 08:05:56;;;;;;;;;;;;;;;-3.05;71.69;98796.80;1713297;84;21054;-68
2022/01/18 08:08:22;;;;;;;;;;;;;;;-3.12;73.51;98800.99;1711538;84;20141;-69
2022/01/18 08:10:48;;;;;;;;;;;;;;;-3.10;75.47;98808.80;1712655;84;20207;-78
2022/01/18 08:13:15;;;;;;;;;;;;;;;-3.02;73.69;98808.39;1712723;84;20101;-70
2022/01/18 08:15:44;;;;;;;;;;;;;;;-2.91;75.18;98820.10;1712643;84;20475;-69
2022/01/18 08:18:14;;;;;;;;;;;;;;;-2.92;73.17;98820.63;1712628;84;21264;-70
2022/01/18 08:20:41;;;;;;;;;;;;;;;-2.95;74.32;98833.73;1711759;84;20192;-72
2022/01/18 08:23:07;;;;;;;;;;;;;;;-2.95;73.30;98842.61;1712523;84;20176;-72
2022/01/18 08:25:35;;;;;;;;;;;;;;;-2.89;72.40;98848.88;1712600;83;20455;-71
2022/01/18 08:28:02;;;;;;;;;;;;;;;-2.81;72.31;98849.77;1712709;83;20137;-71
2022/01/18 08:30:28;;;;;;;;;;;;;;;-2.64;71.44;98845.19;1712907;84;21976;-71
2022/01/18 08:32:55;;;;;;;;;;;;;;;-2.18;72.70;98855.20;1712570;84;20104;-70
2022/01/18 08:35:23;;;;;;;;;;;;;;;-1.61;74.08;98850.19;1712734;83;20177;-72
2022/01/18 08:37:50;;;;;;;;;;;;;;;-1.06;74.93;98876.81;1714746;82;20537;-71
2022/01/18 08:40:17;;;;;;;;;;;;;;;-0.96;69.52;98874.74;1715899;82;20148;-72
2022/01/18 08:42:43;;;;;;;;;;;;;;;-1.19;67.24;98875.11;1712707;83;21053;-72
2022/01/18 08:45:10;;;;;;;;;;;;;;;-1.35;72.16;98886.27;1712641;84;20124;-72
2022/01/18 08:47:36;;;;;;;;;;;;;;;-1.48;69.33;98879.94;1714977;82;20137;-73
2022/01/18 08:50:03;;;;;;;;;;;;;;;-1.74;71.81;98892.33;1715505;82;20124;-71
2022/01/18 08:52:31;;;;;;;;;;;;;;;-1.80;74.08;98887.95;1710744;84;20105;-71
2022/01/18 08:54:57;;;;;;;;;;;;;;;-1.49;73.90;98888.55;1682650;85;21027;-72
2022/01/18 08:57:24;;;;;;;;;;;;;;;-1.04;74.97;98888.15;1699062;83;20101;-70
2022/01/18 08:59:53;;;;;;;;;;;;;;;-0.84;71.16;98886.70;1713841;83;20095;-71
2022/01/18 09:02:19;;;;;;;;;;;;;;;-0.73;70.66;98891.09;1713756;83;20074;-73
2022/01/18 09:04:46;;;;;;;;;;;;;;;-0.62;68.09;98888.76;1694247;83;20429;-69
2022/01/18 09:07:12;;;;;;;;;;;;;;;-0.51;67.36;98873.44;1697285;83;21909;-71
2022/01/18 09:09:44;;;;;;;;;;;;;;;-0.42;67.01;98888.05;1692996;85;20125;-72
2022/01/18 09:12:13;;;;;;;;;;;;;;;-0.47;66.29;98906.89;1715654;83;20091;-73
2022/01/18 09:14:39;;;;;;;;;;;;;;;-0.70;64.46;98903.52;1710011;82;20150;-72
2022/01/18 09:17:06;;;;;;;;;;;;;;;-0.79;66.96;98906.95;1709337;83;20108;-73
2022/01/18 09:19:32;;;;;;;;;;;;;;;-0.53;65.60;98914.14;1704027;83;22156;-72
2022/01/18 09:22:00;;;;;;;;;;;;;;;-0.18;66.09;98916.80;1706533;83;20441;-72
2022/01/18 09:24:26;;;;;;;;;;;;;;;0.14;65.50;98919.37;1708263;83;20454;-68
2022/01/18 09:26:53;;;;;;;;;;;;;;;0.44;64.72;98903.30;1704611;83;20174;-69
2022/01/18 09:29:20;;;;;;;;;;;;;;;0.62;63.30;98900.08;1705812;83;20112;-70
2022/01/18 09:31:47;;;;;;;;;;;;;;;0.65;65.83;98893.33;1720754;83;21153;-70
2022/01/18 09:34:13;;;;;;;;;;;;;;;0.84;69.94;98909.31;1721081;83;20171;-68
2022/01/18 09:36:40;;;;;;;;;;;;;;;1.11;62.71;98910.98;1721095;82;20111;-73
2022/01/18 09:39:07;;;;;;;;;;;;;;;1.01;70.11;98914.48;1720005;83;20095;-75
2022/01/18 09:41:38;;;;;;;;;;;;;;;0.69;63.19;98911.17;1721060;83;20112;-70
2022/01/18 09:44:01;;;;;;;;;;;;;;;0.44;64.10;98918.69;1721191;82;21162;-70
2022/01/18 09:46:28;;;;;;;;;;;;;;;0.19;68.74;98926.14;1699281;83;20165;-71
2022/01/18 09:48:55;;;;;;;;;;;;;;;-0.03;70.90;98939.82;1692825;85;20122;-75
2022/01/18 09:51:23;;;;;;;;;;;;;;;-0.22;66.47;98936.73;1692305;84;21948;-71
2022/01/18 09:53:50;;;;;;;;;;;;;;;-0.35;69.68;98948.78;1692251;83;20089;-70
2022/01/18 09:56:17;;;;;;;;;;;;;;;-0.29;68.20;98939.38;1695338;83;21209;-69
2022/01/18 09:58:44;;;;;;;;;;;;;;;-0.10;67.48;98950.84;1721129;83;20088;-69
2022/01/18 10:01:11;;;;;;;;;;;;;;;0.26;66.95;98947.77;1721151;83;20741;-70
2022/01/18 10:03:38;;;;;;;;;;;;;;;0.63;63.60;98938.17;1721163;83;20776;-70
2022/01/18 10:06:05;;;;;;;;;;;;;;;0.76;65.00;98949.55;1721165;82;20418;-70
2022/01/18 10:08:33;;;;;;;;;;;;;;;0.70;61.11;98948.73;1721041;83;22039;-70
2022/01/18 10:11:17;;;;;;;;;;;;;;;0.82;69.18;98951.19;1714389;82;20123;-74
2022/01/18 10:13:46;;;;;;;;;;;;;;;1.18;70.20;98933.93;1707984;83;20472;-74
2022/01/18 10:16:15;;;;;;;;;;;;;;;1.75;67.09;98942.28;1692807;82;20835;-71
2022/01/18 10:18:55;;;;;;;;;;;;;;;2.14;64.00;98957.92;1692846;85;20118;-79
2022/01/18 10:21:34;;;;;;;;;;;;;;;2.34;64.90;98964.60;1692275;85;21222;-74
2022/01/18 10:24:16;;;;;;;;;;;;;;;2.47;60.75;98954.53;1692467;84;20086;-75
2022/01/18 10:26:44;;;;;;;;;;;;;;;2.31;62.51;98954.35;1692122;85;20118;-78
2022/01/18 10:29:11;;;;;;;;;;;;;;;2.25;60.91;98967.09;1692239;84;20097;-76
2022/01/18 10:34:15;;;;;;;;;;;;;;;2.28;62.30;98963.84;1692334;85;21160;-73
2022/01/18 10:36:54;;;;;;;;;;;;;;;2.36;63.38;98980.03;1692315;84;20157;-72
2022/01/18 10:39:24;;;;;;;;;;;;;;;2.60;56.11;98984.29;1692132;85;20074;-84
2022/01/18 10:41:51;;;;;;;;;;;;;;;2.61;62.25;98976.43;1692284;85;21901;-79
2022/01/18 10:44:18;;;;;;;;;;;;;;;2.61;63.42;98995.40;1692280;85;20177;-83
2022/01/18 10:46:53;;;;;;;;;;;;;;;2.73;65.89;98989.66;1702544;83;21320;-77
2022/01/18 10:49:27;;;;;;;;;;;;;;;2.73;65.36;98995.89;1697198;83;20130;-82
2022/01/18 10:52:02;;;;;;;;;;;;;;;2.33;63.62;98992.78;1692222;85;20099;-74
2022/01/18 10:54:37;;;;;;;;;;;;;;;1.76;66.77;98989.09;1692512;83;20434;-79
2022/01/18 10:57:06;;;;;;;;;;;;;;;1.38;65.45;98981.00;1692039;83;20448;-83
2022/01/18 10:59:32;;;;;;;;;;;;;;;1.21;62.20;99000.17;1691729;84;21799;-80
2022/01/18 11:02:14;;;;;;;;;;;;;;;0.98;63.02;98992.86;1693335;83;20504;-87
2022/01/18 11:04:52;;;;;;;;;;;;;;;0.65;69.20;99002.20;1692487;83;20077;-82
2022/01/18 11:07:21;;;;;;;;;;;;;;;0.61;69.48;99002.45;1691988;84;20446;-78
2022/01/18 11:09:48;;;;;;;;;;;;;;;0.82;66.27;99010.64;1692233;84;20105;-78
2022/01/18 11:12:15;;;;;;;;;;;;;;;1.19;70.33;99026.67;1692304;85;21151;-79
2022/01/18 11:14:49;;;;;;;;;;;;;;;1.47;63.23;99015.91;1692564;83;20086;-79
2022/01/18 11:17:26;;;;;;;;;;;;;;;1.56;64.56;99026.47;1692144;84;20110;-79
2022/01/18 11:19:55;;;;;;;;;;;;;;;1.62;66.90;99029.45;1692226;84;20094;-80
2022/01/18 11:22:24;;;;;;;;;;;;;;;1.84;64.38;99019.14;1692254;85;20073;-78
2022/01/18 11:24:50;;;;;;;;;;;;;;;1.70;59.96;99033.51;1692255;85;21119;-79
2022/01/18 11:27:18;;;;;;;;;;;;;;;1.30;70.28;99058.88;1689252;85;20428;-78
2022/01/18 11:29:47;;;;;;;;;;;;;;;0.94;68.33;99023.38;1689710;85;20405;-82
2022/01/18 11:32:14;;;;;;;;;;;;;;;0.53;66.41;99062.94;1689435;85;20086;-79
2022/01/18 11:34:50;;;;;;;;;;;;;;;0.10;68.98;99071.58;1689574;85;20110;-80
2022/01/18 11:37:46;;;;;;;;;;;;;;;-0.24;65.11;99070.24;1689481;85;21805;-80
2022/01/18 11:40:15;;;;;;;;;;;;;;;-0.50;68.81;99081.33;1689338;85;20122;-80
2022/01/18 11:42:54;;;;;;;;;;;;;;;-0.81;65.69;99083.73;1689418;85;20134;-80
2022/01/18 11:45:27;;;;;;;;;;;;;;;-1.07;64.73;99080.45;1689382;85;20457;-81
2022/01/18 11:48:13;;;;;;;;;;;;;;;-1.23;68.14;99102.37;1689142;84;20425;-81
2022/01/18 11:50:52;;;;;;;;;;;;;;;-1.33;67.92;99106.28;1690517;85;21174;-81
2022/01/18 11:56:16;;;;;;;;;;;;;;;-1.38;66.47;99106.21;1689953;85;20125;-78
2022/01/18 11:58:43;;;;;;;;;;;;;;;-1.47;67.84;99123.85;1686848;85;20150;-87
2022/01/18 12:01:10;;;;;;;;;;;;;;;-1.54;69.50;99125.37;1689684;85;20074;-79
2022/01/18 12:03:43;;;;;;;;;;;;;;;-1.64;64.90;99125.75;1689646;85;21473;-85
2022/01/18 12:06:10;;;;;;;;;;;;;;;-1.74;69.61;99122.41;1689436;85;20168;-75
2022/01/18 12:08:40;;;;;;;;;;;;;;;-1.79;68.81;99129.05;1688527;85;20133;-76
2022/01/18 12:11:22;;;;;;;;;;;;;;;-1.83;67.02;99115.80;1689489;85;20141;-82
2022/01/18 12:13:48;;;;;;;;;;;;;;;-1.80;69.23;99116.66;1688123;84;20181;-80
2022/01/18 12:16:20;;;;;;;;;;;;;;;-1.68;69.90;99133.50;1671448;85;21084;-77
2022/01/18 12:18:52;;;;;;;;;;;;;;;-1.45;74.47;99136.00;1689310;85;20118;-76
2022/01/18 12:21:20;;;;;;;;;;;;;;;-1.14;70.22;99131.02;1688830;84;20174;-76
2022/01/18 12:23:47;;;;;;;;;;;;;;;-1.08;66.63;99130.02;1689323;85;20841;-79
2022/01/18 12:34:43;;;;;;;;;;;;;;;-0.93;65.41;99165.23;1678490;85;20102;-77
2022/01/18 12:37:13;;;;;;;;;;;;;;;-0.98;64.44;99158.97;1678373;85;20348;-71
2022/01/18 12:39:57;;;;;;;;;;;;;;;-1.10;63.43;99156.39;1678831;85;20117;-70
2022/01/18 12:45:12;;;;;;;;;;;;;;;-1.18;68.89;99140.69;1678540;85;20075;-80
2022/01/18 12:47:48;;;;;;;;;;;;;;;-1.21;68.25;99185.63;1678725;85;20472;-81
2022/01/18 12:50:19;;;;;;;;;;;;;;;-1.20;71.77;99189.95;1678681;85;20172;-79
2022/01/18 12:52:54;;;;;;;;;;;;;;;-1.12;67.43;99192.19;1678528;85;20086;-71
2022/01/18 12:55:26;;;;;;;;;;;;;;;-1.08;69.19;99195.48;1678596;85;21067;-78
2022/01/18 12:58:09;;;;;;;;;;;;;;;-1.08;66.64;99208.14;1678288;85;20433;-76
2022/01/18 13:00:45;;;;;;;;;;;;;;;-1.14;70.01;99212.64;1678474;84;20147;-87
2022/01/18 13:03:33;;;;;;;;;;;;;;;-1.24;72.37;99220.59;1678768;85;20110;-83
2022/01/18 13:06:03;;;;;;;;;;;;;;;-1.35;71.19;99223.67;1678510;85;20086;-81
2022/01/18 13:08:46;;;;;;;;;;;;;;;-1.49;68.09;99226.94;1678346;85;21202;-83
2022/01/18 13:11:17;;;;;;;;;;;;;;;-1.60;69.87;99235.38;1678601;85;20524;-88
2022/01/18 13:13:57;;;;;;;;;;;;;;;-1.77;67.05;99231.87;1678704;85;20118;-70
2022/01/18 13:27:14;;;;;;;;;;;;;;;-2.08;71.21;99270.33;1678546;84;20118;-73
2022/01/18 13:29:38;;;;;;;;;;;;;;;-2.09;72.77;99269.23;1678174;85;20197;-72
2022/01/18 13:32:16;;;;;;;;;;;;;;;-2.16;66.47;99273.41;1678825;84;20452;-78
2022/01/18 13:34:39;;;;;;;;;;;;;;;-2.23;68.06;99285.35;1678066;85;21145;-74
2022/01/18 13:37:11;;;;;;;;;;;;;;;-2.26;72.16;99289.34;1678929;84;20466;-78
2022/01/18 13:39:43;;;;;;;;;;;;;;;-2.32;67.87;99271.50;1678479;84;20430;-81
2022/01/18 13:42:09;;;;;;;;;;;;;;;-2.30;74.61;99303.49;1678469;85;20508;-72
2022/01/18 13:44:36;;;;;;;;;;;;;;;-2.35;70.92;99301.02;1678670;85;20099;-84
2022/01/18 13:47:16;;;;;;;;;;;;;;;-2.45;65.22;99300.81;1678460;85;21159;-69
2022/01/18 13:49:43;;;;;;;;;;;;;;;-2.52;71.83;99309.53;1678738;85;20086;-69
2022/01/18 13:52:11;;;;;;;;;;;;;;;-2.55;73.01;99314.56;1678671;84;20098;-71
2022/01/18 13:54:50;;;;;;;;;;;;;;;-2.57;72.58;99295.16;1678528;85;20122;-70
2022/01/18 13:57:19;;;;;;;;;;;;;;;-2.60;72.49;99318.48;1678499;85;20127;-70
2022/01/18 13:59:46;;;;;;;;;;;;;;;-2.59;71.60;99316.08;1678762;85;20513;-73
2022/01/18 14:02:14;;;;;;;;;;;;;;;-2.61;70.18;99320.34;1678557;85;20082;-72
2022/01/18 14:04:41;;;;;;;;;;;;;;;-2.66;69.56;99325.08;1678677;85;20122;-70
2022/01/18 14:07:08;;;;;;;;;;;;;;;-2.70;71.82;99325.27;1678521;84;20461;-70
2022/01/18 14:09:35;;;;;;;;;;;;;;;-2.71;72.18;99319.59;1678595;85;20098;-70
2022/01/18 14:12:03;;;;;;;;;;;;;;;-2.73;73.29;99323.05;1678500;85;21171;-73
2022/01/18 14:14:31;;;;;;;;;;;;;;;-2.75;75.99;99329.70;1678391;85;20090;-71
2022/01/18 14:17:05;;;;;;;;;;;;;;;-2.80;72.90;99329.59;1678573;84;20099;-71
2022/01/18 14:19:38;;;;;;;;;;;;;;;-2.88;69.01;99336.13;1678279;85;21934;-70
2022/01/18 14:22:22;;;;;;;;;;;;;;;-2.93;71.51;99339.25;1678552;85;20126;-70
2022/01/18 14:24:54;;;;;;;;;;;;;;;-3.03;71.53;99339.30;1678851;85;21111;-70
2022/01/18 14:27:25;;;;;;;;;;;;;;;-3.10;73.14;99347.17;1678425;84;20102;-70
2022/01/18 14:29:57;;;;;;;;;;;;;;;-3.21;70.74;99342.08;1678450;85;20152;-70
2022/01/18 14:32:26;;;;;;;;;;;;;;;-3.28;71.61;99349.42;1678655;84;20111;-70
2022/01/18 14:35:00;;;;;;;;;;;;;;;-3.33;71.00;99355.48;1676337;85;20114;-70
2022/01/18 14:37:50;;;;;;;;;;;;;;;-3.37;71.52;99367.72;1677480;85;21167;-68
2022/01/18 14:40:27;;;;;;;;;;;;;;;-3.44;72.73;99356.27;1678312;85;20079;-70
2022/01/18 14:42:57;;;;;;;;;;;;;;;-3.48;74.06;99352.44;1678557;84;20441;-69